createdAt,value
2018-09-16T00:00:02.574Z,65.3
2018-09-16T00:01:02.569Z,64.97
2018-09-16T00:02:02.637Z,65.06
2018-09-16T00:03:02.677Z,65.2
2018-09-16T00:04:02.549Z,65.5
2018-09-16T00:05:02.540Z,65.17
2018-09-16T00:06:02.533Z,65.6
2018-09-16T00:07:02.516Z,65.13
2018-09-16T00:08:02.589Z,65.53
2018-09-16T00:09:02.556Z,65.41
2018-09-16T00:10:02.692Z,65.83
2018-09-16T00:11:02.575Z,65.64
2018-09-16T00:12:02.739Z,65.45
2018-09-16T00:13:02.531Z,65.28
2018-09-16T00:14:02.764Z,65.23
2018-09-16T00:15:02.533Z,65.52
2018-09-16T00:16:03.597Z,65
2018-09-16T00:17:02.508Z,65.69
2018-09-16T00:18:02.510Z,65.76
2018-09-16T00:19:02.613Z,66.2
2018-09-16T00:20:02.549Z,66.25
2018-09-16T00:21:02.677Z,66.16
2018-09-16T00:22:02.523Z,66.21
2018-09-16T00:23:02.546Z,66.52
2018-09-16T00:24:02.741Z,66.25
2018-09-16T00:25:02.532Z,65.78
2018-09-16T00:26:02.619Z,66.29
2018-09-16T00:27:02.615Z,66.39
2018-09-16T00:28:02.554Z,66.39
2018-09-16T00:29:02.573Z,66.06
2018-09-16T00:30:02.577Z,66.44
2018-09-16T00:31:02.774Z,66
2018-09-16T00:32:02.729Z,66.28
2018-09-16T00:33:02.718Z,66.54
2018-09-16T00:34:02.566Z,66.14
2018-09-16T00:35:02.550Z,65.87
2018-09-16T00:36:02.589Z,65.77
2018-09-16T00:37:02.695Z,65.65
2018-09-16T00:38:02.566Z,65.84
2018-09-16T00:39:02.639Z,65.79
2018-09-16T00:40:02.555Z,66.35
2018-09-16T00:41:03.172Z,66.35
2018-09-16T00:42:02.527Z,66.2
2018-09-16T00:43:02.672Z,66.59
2018-09-16T00:44:02.612Z,65.88
2018-09-16T00:45:02.590Z,66.14
2018-09-16T00:46:02.581Z,66.94
2018-09-16T00:47:02.548Z,66.84
2018-09-16T00:48:02.522Z,66.67
2018-09-16T00:49:02.634Z,66.96
2018-09-16T00:50:02.568Z,67.1
2018-09-16T00:51:02.544Z,66.66
2018-09-16T00:52:02.597Z,66.91
2018-09-16T00:53:02.526Z,66.85
2018-09-16T00:54:02.537Z,66.92
2018-09-16T00:55:02.571Z,66.35
2018-09-16T00:56:02.585Z,66.65
2018-09-16T00:57:02.571Z,66.23
2018-09-16T00:58:02.546Z,66.31
2018-09-16T00:59:02.556Z,66.56
2018-09-16T01:00:02.645Z,66.43
2018-09-16T01:01:02.585Z,66.43
2018-09-16T01:02:02.707Z,66.77
2018-09-16T01:03:02.546Z,67.27
2018-09-16T01:04:02.616Z,67.41
2018-09-16T01:05:02.839Z,67.15
2018-09-16T01:06:02.573Z,67.57
2018-09-16T01:07:02.583Z,67.49
2018-09-16T01:08:02.610Z,67.63
2018-09-16T01:09:02.673Z,67.5
2018-09-16T01:10:02.581Z,66.96
2018-09-16T01:11:02.548Z,67.33
2018-09-16T01:12:02.566Z,66.81
2018-09-16T01:13:02.561Z,66.99
2018-09-16T01:14:02.618Z,67.06
2018-09-16T01:15:02.631Z,67.02
2018-09-16T01:16:02.641Z,66.92
2018-09-16T01:17:02.704Z,66.75
2018-09-16T01:18:02.569Z,66.77
2018-09-16T01:19:02.686Z,67.25
2018-09-16T01:20:02.684Z,67.1
2018-09-16T01:21:02.666Z,67.06
2018-09-16T01:22:02.574Z,67.06
2018-09-16T01:23:02.662Z,66.85
2018-09-16T01:24:02.686Z,67.41
2018-09-16T01:25:02.646Z,67.16
2018-09-16T01:26:02.621Z,67.14
2018-09-16T01:27:02.602Z,67.25
2018-09-16T01:28:03.063Z,67.34
2018-09-16T01:29:02.605Z,67.14
2018-09-16T01:30:02.564Z,67.48
2018-09-16T01:31:02.585Z,67.64
2018-09-16T01:32:02.765Z,67.48
2018-09-16T01:33:02.701Z,67.37
2018-09-16T01:34:02.624Z,67.69
2018-09-16T01:35:02.554Z,67.51
2018-09-16T01:36:02.590Z,67.64
2018-09-16T01:37:02.815Z,67.89
2018-09-16T01:38:02.715Z,67.59
2018-09-16T01:39:02.562Z,67.92
2018-09-16T01:40:02.587Z,67.72
2018-09-16T01:41:02.789Z,68.12
2018-09-16T01:42:02.605Z,68.12
2018-09-16T01:43:02.706Z,67.83
2018-09-16T01:44:02.557Z,67.74
2018-09-16T01:45:02.629Z,68.06
2018-09-16T01:46:03.111Z,67.95
2018-09-16T01:47:02.591Z,68.18
2018-09-16T01:48:02.642Z,68.24
2018-09-16T01:49:02.601Z,67.92
2018-09-16T01:50:02.596Z,68.16
2018-09-16T01:51:02.601Z,68.47
2018-09-16T01:52:02.580Z,68.39
2018-09-16T01:53:02.616Z,68.57
2018-09-16T01:54:02.610Z,68.54
2018-09-16T01:55:02.567Z,68.52
2018-09-16T01:56:02.766Z,68.61
2018-09-16T01:57:02.693Z,68.93
2018-09-16T01:58:02.600Z,68.92
2018-09-16T01:59:02.624Z,69.11
2018-09-16T02:00:02.777Z,69.03
2018-09-16T02:01:02.974Z,69.19
2018-09-16T02:02:02.612Z,69.16
2018-09-16T02:03:02.589Z,68.98
2018-09-16T02:04:02.644Z,68.84
2018-09-16T02:05:02.590Z,69.01
2018-09-16T02:06:02.598Z,69.07
2018-09-16T02:07:02.627Z,68.92
2018-09-16T02:08:02.566Z,68.93
2018-09-16T02:09:02.611Z,69.01
2018-09-16T02:10:02.588Z,68.6
2018-09-16T02:11:02.563Z,69.06
2018-09-16T02:12:02.624Z,68.88
2018-09-16T02:13:02.576Z,69.23
2018-09-16T02:14:02.581Z,69.34
2018-09-16T02:15:02.559Z,69.48
2018-09-16T02:16:02.576Z,69.42
2018-09-16T02:17:02.638Z,69.47
2018-09-16T02:18:02.598Z,69.7
2018-09-16T02:19:02.799Z,69.59
2018-09-16T02:20:02.591Z,69.51
2018-09-16T02:21:02.608Z,69.72
2018-09-16T02:22:02.660Z,70.05
2018-09-16T02:23:02.730Z,70.05
2018-09-16T02:24:02.722Z,69.91
2018-09-16T02:25:02.629Z,70.17
2018-09-16T02:26:02.950Z,70.28
2018-09-16T02:27:02.571Z,70.05
2018-09-16T02:28:02.716Z,70.3
2018-09-16T02:29:02.727Z,70.29
2018-09-16T02:30:02.610Z,70.29
2018-09-16T02:31:02.643Z,70.18
2018-09-16T02:32:02.622Z,70.33
2018-09-16T02:33:02.585Z,70.13
2018-09-16T02:34:02.617Z,70.33
2018-09-16T02:35:02.594Z,70.72
2018-09-16T02:36:02.612Z,70.75
2018-09-16T02:37:02.601Z,70.58
2018-09-16T02:38:02.650Z,70.64
2018-09-16T02:39:02.565Z,70.21
2018-09-16T02:40:02.846Z,70.54
2018-09-16T02:41:02.664Z,70.36
2018-09-16T02:42:03.171Z,70.33
2018-09-16T02:43:02.686Z,70.61
2018-09-16T02:44:02.663Z,70.36
2018-09-16T02:45:02.628Z,70.09
2018-09-16T02:46:02.629Z,69.83
2018-09-16T02:47:02.658Z,70.26
2018-09-16T02:48:02.721Z,70.32
2018-09-16T02:49:02.616Z,70.36
2018-09-16T02:50:02.586Z,70.52
2018-09-16T02:51:02.896Z,70.54
2018-09-16T02:52:02.596Z,70.66
2018-09-16T02:53:02.596Z,70.28
2018-09-16T02:54:02.570Z,70.4
2018-09-16T02:55:02.779Z,70.58
2018-09-16T02:56:02.753Z,70.54
2018-09-16T02:57:02.607Z,70.56
2018-09-16T02:58:02.928Z,70.7
2018-09-16T02:59:02.700Z,70.73
2018-09-16T03:00:02.637Z,71.44
2018-09-16T03:01:03.006Z,71.31
2018-09-16T03:02:02.608Z,70.87
2018-09-16T03:03:02.761Z,70.86
2018-09-16T03:04:02.653Z,70.88
2018-09-16T03:05:02.663Z,70.75
2018-09-16T03:06:02.591Z,70.75
2018-09-16T03:07:02.606Z,70.91
2018-09-16T03:08:02.606Z,70.56
2018-09-16T03:09:02.731Z,70.91
2018-09-16T03:10:02.685Z,70.74
2018-09-16T03:11:02.772Z,71.24
2018-09-16T03:12:02.594Z,71.56
2018-09-16T03:13:02.819Z,71.51
2018-09-16T03:14:02.618Z,71.05
2018-09-16T03:15:02.615Z,70.97
2018-09-16T03:16:02.658Z,71.07
2018-09-16T03:17:02.712Z,70.84
2018-09-16T03:18:02.778Z,71.22
2018-09-16T03:19:02.728Z,71.13
2018-09-16T03:20:02.808Z,71.41
2018-09-16T03:21:02.629Z,71.59
2018-09-16T03:22:02.607Z,71.65
2018-09-16T03:23:02.620Z,71.58
2018-09-16T03:24:02.640Z,71.51
2018-09-16T03:25:02.622Z,71.49
2018-09-16T03:26:02.710Z,71.69
2018-09-16T03:27:02.644Z,71.51
2018-09-16T03:28:02.779Z,71.36
2018-09-16T03:29:02.658Z,71.3
2018-09-16T03:30:03.187Z,71.38
2018-09-16T03:31:02.660Z,71.38
2018-09-16T03:32:02.651Z,71.82
2018-09-16T03:33:02.653Z,71.6
2018-09-16T03:34:02.637Z,71.8
2018-09-16T03:35:02.625Z,71.86
2018-09-16T03:36:02.758Z,71.94
2018-09-16T03:37:02.608Z,72.11
2018-09-16T03:38:03.147Z,71.88
2018-09-16T03:39:02.621Z,72.01
2018-09-16T03:40:02.675Z,71.49
2018-09-16T03:41:02.668Z,71.28
2018-09-16T03:42:02.795Z,71.77
2018-09-16T03:43:02.624Z,71.36
2018-09-16T03:44:02.698Z,72
2018-09-16T03:45:02.796Z,71.47
2018-09-16T03:46:02.914Z,71.41
2018-09-16T03:47:02.729Z,71.35
2018-09-16T03:48:02.646Z,70.98
2018-09-16T03:49:08.619Z,71.16
2018-09-16T03:50:02.697Z,71.09
2018-09-16T03:51:02.665Z,71.17
2018-09-16T03:52:02.708Z,71.55
2018-09-16T03:53:02.770Z,71.59
2018-09-16T03:54:02.789Z,71.18
2018-09-16T03:55:02.674Z,71.16
2018-09-16T03:56:02.754Z,71.32
2018-09-16T03:57:02.624Z,70.99
2018-09-16T03:58:02.629Z,71.01
2018-09-16T03:59:02.633Z,71.19
2018-09-16T04:00:03.038Z,71.04
2018-09-16T04:01:02.717Z,71.29
2018-09-16T04:02:02.703Z,71
2018-09-16T04:03:02.769Z,71.47
2018-09-16T04:04:02.826Z,71.61
2018-09-16T04:05:02.643Z,71.39
2018-09-16T04:06:02.627Z,71.6
2018-09-16T04:07:02.777Z,71.5
2018-09-16T04:08:02.801Z,71.22
2018-09-16T04:09:02.622Z,71.48
2018-09-16T04:10:02.631Z,71.38
2018-09-16T04:11:02.663Z,70.89
2018-09-16T04:12:02.632Z,71.25
2018-09-16T04:13:02.660Z,71.33
2018-09-16T04:14:03.374Z,71.36
2018-09-16T04:15:02.663Z,71.16
2018-09-16T04:16:02.705Z,71.23
2018-09-16T04:17:03.395Z,71.18
2018-09-16T04:18:02.624Z,71.69
2018-09-16T04:19:02.666Z,71.28
2018-09-16T04:20:02.676Z,71.16
2018-09-16T04:21:03.017Z,71.23
2018-09-16T04:22:02.712Z,71.41
2018-09-16T04:23:02.662Z,71.04
2018-09-16T04:24:02.663Z,70.84
2018-09-16T04:25:02.662Z,71.29
2018-09-16T04:26:02.721Z,71.42
2018-09-16T04:27:02.685Z,71.7
2018-09-16T04:28:02.969Z,71.87
2018-09-16T04:29:02.721Z,71.71
2018-09-16T04:30:02.664Z,71.33
2018-09-16T04:31:02.651Z,71.79
2018-09-16T04:32:03.226Z,71.45
2018-09-16T04:33:02.807Z,71.21
2018-09-16T04:34:02.663Z,71.49
2018-09-16T04:35:02.664Z,71.73
2018-09-16T04:36:02.715Z,71.21
2018-09-16T04:37:02.701Z,71.1
2018-09-16T04:38:02.751Z,70.78
2018-09-16T04:39:03.057Z,70.71
2018-09-16T04:40:02.723Z,70.97
2018-09-16T04:41:02.650Z,72.01
2018-09-16T04:42:02.693Z,72.03
2018-09-16T04:43:02.642Z,71.87
2018-09-16T04:44:02.785Z,71.85
2018-09-16T04:45:02.658Z,71.65
2018-09-16T04:46:02.651Z,71.93
2018-09-16T04:47:02.791Z,72.12
2018-09-16T04:48:02.695Z,72.18
2018-09-16T04:49:02.806Z,72.25
2018-09-16T04:50:03.303Z,72.45
2018-09-16T04:51:02.691Z,72.61
2018-09-16T04:52:02.677Z,72.38
2018-09-16T04:53:02.652Z,72.2
2018-09-16T04:54:02.721Z,72.15
2018-09-16T04:55:02.679Z,72.04
2018-09-16T04:56:02.770Z,72.1
2018-09-16T04:57:02.679Z,72.44
2018-09-16T04:58:02.657Z,72.38
2018-09-16T04:59:02.718Z,72.01
2018-09-16T05:00:02.673Z,71.8
2018-09-16T05:01:02.906Z,71.96
2018-09-16T05:02:02.684Z,71.85
2018-09-16T05:03:02.673Z,71.9
2018-09-16T05:04:03.008Z,72
2018-09-16T05:05:02.661Z,72.11
2018-09-16T05:06:02.676Z,71.27
2018-09-16T05:07:02.651Z,71.94
2018-09-16T05:08:02.804Z,72.7
2018-09-16T05:09:02.717Z,72.82
2018-09-16T05:10:02.781Z,72.42
2018-09-16T05:11:02.674Z,72.35
2018-09-16T05:12:02.768Z,72.63
2018-09-16T05:13:02.691Z,72.39
2018-09-16T05:14:03.163Z,72.35
2018-09-16T05:15:03.092Z,72.72
2018-09-16T05:16:02.814Z,72.35
2018-09-16T05:17:02.659Z,72.56
2018-09-16T05:18:03.417Z,72.52
2018-09-16T05:19:03.011Z,72.34
2018-09-16T05:20:03.017Z,72.32
2018-09-16T05:21:02.661Z,72.06
2018-09-16T05:22:02.817Z,71.86
2018-09-16T05:23:02.723Z,71.86
2018-09-16T05:24:03.047Z,71.97
2018-09-16T05:25:02.769Z,71.92
2018-09-16T05:26:02.748Z,71.73
2018-09-16T05:27:02.687Z,71.55
2018-09-16T05:28:02.785Z,71.8
2018-09-16T05:29:02.756Z,71.36
2018-09-16T05:30:02.775Z,71.47
2018-09-16T05:31:03.153Z,71.44
2018-09-16T05:32:02.716Z,71.29
2018-09-16T05:33:02.704Z,71.42
2018-09-16T05:34:02.693Z,71.36
2018-09-16T05:35:02.744Z,71.36
2018-09-16T05:36:02.756Z,71.36
2018-09-16T05:37:02.728Z,71.26
2018-09-16T05:38:02.730Z,71.52
2018-09-16T05:39:03.175Z,71.62
2018-09-16T05:40:02.691Z,71.52
2018-09-16T05:41:03.029Z,71.54
2018-09-16T05:42:02.692Z,71.67
2018-09-16T05:43:02.741Z,71.58
2018-09-16T05:44:02.689Z,71.92
2018-09-16T05:45:03.086Z,72.11
2018-09-16T05:46:02.684Z,71.85
2018-09-16T05:47:02.939Z,72
2018-09-16T05:48:03.310Z,71.8
2018-09-16T05:49:02.831Z,72.04
2018-09-16T05:50:02.714Z,72.17
2018-09-16T05:51:02.817Z,71.96
2018-09-16T05:52:03.022Z,71.83
2018-09-16T05:53:03.547Z,71.96
2018-09-16T05:54:02.942Z,72.34
2018-09-16T05:55:02.738Z,72.34
2018-09-16T05:56:02.835Z,72.76
2018-09-16T05:57:02.861Z,72.73
2018-09-16T05:58:02.682Z,72.42
2018-09-16T05:59:02.958Z,72.4
2018-09-16T06:00:02.688Z,72.48
2018-09-16T06:01:02.738Z,72.76
2018-09-16T06:02:02.762Z,73.03
2018-09-16T06:03:02.824Z,72.86
2018-09-16T06:04:02.949Z,72.56
2018-09-16T06:05:03.134Z,72.86
2018-09-16T06:06:02.793Z,73.2
2018-09-16T06:07:02.971Z,73.38
2018-09-16T06:08:03.033Z,73.42
2018-09-16T06:09:02.676Z,72.55
2018-09-16T06:10:02.709Z,72.69
2018-09-16T06:11:02.719Z,72.99
2018-09-16T06:12:03.060Z,73.03
2018-09-16T06:13:02.716Z,72.6
2018-09-16T06:14:03.381Z,72.39
2018-09-16T06:15:02.684Z,72.95
2018-09-16T06:16:02.713Z,73.09
2018-09-16T06:17:02.685Z,72.77
2018-09-16T06:18:03.124Z,72.81
2018-09-16T06:19:02.695Z,72.73
2018-09-16T06:20:02.706Z,72.51
2018-09-16T06:21:02.709Z,71.95
2018-09-16T06:22:02.808Z,72.42
2018-09-16T06:23:02.724Z,72.43
2018-09-16T06:24:02.685Z,72.18
2018-09-16T06:25:02.908Z,71.98
2018-09-16T06:26:02.793Z,72.24
2018-09-16T06:27:02.732Z,71.88
2018-09-16T06:28:02.701Z,71.64
2018-09-16T06:29:03.294Z,71.43
2018-09-16T06:30:03.210Z,71.28
2018-09-16T06:31:02.777Z,71.19
2018-09-16T06:32:03.101Z,71.47
2018-09-16T06:33:02.732Z,71.4
2018-09-16T06:34:02.729Z,71.2
2018-09-16T06:35:03.011Z,71.01
2018-09-16T06:36:03.352Z,71.13
2018-09-16T06:37:02.725Z,70.89
2018-09-16T06:38:02.903Z,70.63
2018-09-16T06:39:02.822Z,70.75
2018-09-16T06:40:02.737Z,70.55
2018-09-16T06:41:02.721Z,70.46
2018-09-16T06:42:03.178Z,70.38
2018-09-16T06:43:02.700Z,70.22
2018-09-16T06:44:02.692Z,70.49
2018-09-16T06:45:02.760Z,70.51
2018-09-16T06:46:02.719Z,70.43
2018-09-16T06:47:03.010Z,70.17
2018-09-16T06:48:02.748Z,69.83
2018-09-16T06:49:02.791Z,70.14
2018-09-16T06:50:02.707Z,69.87
2018-09-16T06:51:03.407Z,69.48
2018-09-16T06:52:03.189Z,69.23
2018-09-16T06:53:03.071Z,69.01
2018-09-16T06:54:02.759Z,69.1
2018-09-16T06:55:02.745Z,69.05
2018-09-16T06:56:02.690Z,68.79
2018-09-16T06:57:02.706Z,68.41
2018-09-16T06:58:03.174Z,68.26
2018-09-16T06:59:02.746Z,68.47
2018-09-16T07:00:02.723Z,68.56
2018-09-16T07:01:02.705Z,68.21
2018-09-16T07:02:02.715Z,68.2
2018-09-16T07:03:02.773Z,68.23
2018-09-16T07:04:02.814Z,68.08
2018-09-16T07:05:03.224Z,67.99
2018-09-16T07:06:02.726Z,67.65
2018-09-16T07:07:02.777Z,67.53
2018-09-16T07:08:02.702Z,67.39
2018-09-16T07:09:03.143Z,66.56
2018-09-16T07:10:02.948Z,67.03
2018-09-16T07:11:02.806Z,67.02
2018-09-16T07:12:02.961Z,67.1
2018-09-16T07:13:03.188Z,66.52
2018-09-16T07:14:02.766Z,66.26
2018-09-16T07:15:03.205Z,66.26
2018-09-16T07:16:02.790Z,66.19
2018-09-16T07:17:03.098Z,65.73
2018-09-16T07:18:02.829Z,65.87
2018-09-16T07:19:02.759Z,65.71
2018-09-16T07:20:03.073Z,64.97
2018-09-16T07:21:03.018Z,65.5
2018-09-16T07:22:02.754Z,64.96
2018-09-16T07:23:02.781Z,64.71
2018-09-16T07:24:02.917Z,64.86
2018-09-16T07:25:02.878Z,64.88
2018-09-16T07:26:02.712Z,64.75
2018-09-16T07:27:02.743Z,63.99
2018-09-16T07:28:02.801Z,64.15
2018-09-16T07:29:02.749Z,63.92
2018-09-16T07:30:02.829Z,64.1
2018-09-16T07:31:02.728Z,63.93
2018-09-16T07:32:03.158Z,63.37
2018-09-16T07:33:03.142Z,63.66
2018-09-16T07:34:03.210Z,63.35
2018-09-16T07:35:02.789Z,63.4
2018-09-16T07:36:02.734Z,63.08
2018-09-16T07:37:02.724Z,62.29
2018-09-16T07:38:03.567Z,62.11
2018-09-16T07:39:02.808Z,62.04
2018-09-16T07:40:02.748Z,62.35
2018-09-16T07:41:02.910Z,62.24
2018-09-16T07:42:03.586Z,60.91
2018-09-16T07:43:03.082Z,60.85
2018-09-16T07:44:02.839Z,61.26
2018-09-16T07:45:03.101Z,60.88
2018-09-16T07:46:03.100Z,60.78
2018-09-16T07:47:02.898Z,60.49
2018-09-16T07:48:02.754Z,60.62
2018-09-16T07:49:02.761Z,60.02
2018-09-16T07:50:03.023Z,60.04
2018-09-16T07:51:02.751Z,60.16
2018-09-16T07:52:02.757Z,60.45
2018-09-16T07:53:02.982Z,59.86
2018-09-16T07:54:03.053Z,60.16
2018-09-16T07:55:02.954Z,59.66
2018-09-16T07:56:02.785Z,59.4
2018-09-16T07:57:02.780Z,59.56
2018-09-16T07:58:02.773Z,59.62
2018-09-16T07:59:02.809Z,59.75
2018-09-16T08:00:02.811Z,59.25
2018-09-16T08:01:03.061Z,58.99
2018-09-16T08:02:03.013Z,58.96
2018-09-16T08:03:02.764Z,59.66
2018-09-16T08:04:02.738Z,59.92
2018-09-16T08:05:02.795Z,59.38
2018-09-16T08:06:02.932Z,59.17
2018-09-16T08:07:02.840Z,58.93
2018-09-16T08:08:02.852Z,59.1
2018-09-16T08:09:02.879Z,59.46
2018-09-16T08:10:02.757Z,59.41
2018-09-16T08:11:02.759Z,59.36
2018-09-16T08:12:02.773Z,59.48
2018-09-16T08:13:02.822Z,59.12
2018-09-16T08:14:02.849Z,59.42
2018-09-16T08:15:02.855Z,58.56
2018-09-16T08:16:02.901Z,58.19
2018-09-16T08:17:02.800Z,58.27
2018-09-16T08:18:02.806Z,59.07
2018-09-16T08:19:02.769Z,58.66
2018-09-16T08:20:02.827Z,58.36
2018-09-16T08:21:03.617Z,58.47
2018-09-16T08:22:02.762Z,58.52
2018-09-16T08:23:02.809Z,58.6
2018-09-16T08:24:02.770Z,57.58
2018-09-16T08:25:03.067Z,58.02
2018-09-16T08:26:02.829Z,58.22
2018-09-16T08:27:02.792Z,58.32
2018-09-16T08:28:02.771Z,57.35
2018-09-16T08:29:03.089Z,57.68
2018-09-16T08:30:02.845Z,58.64
2018-09-16T08:35:03.162Z,57
2018-09-16T08:36:02.977Z,56.66
2018-09-16T08:37:03.376Z,56.95
2018-09-16T08:38:03.525Z,56.3
2018-09-16T08:39:03.139Z,56.45
2018-09-16T08:40:03.323Z,56.1
2018-09-16T08:41:02.964Z,56.17
2018-09-16T08:42:02.970Z,55.74
2018-09-16T08:43:02.980Z,56.26
2018-09-16T08:44:03.188Z,55.96
2018-09-16T08:45:03.182Z,55.47
2018-09-16T08:46:03.010Z,56.02
2018-09-16T08:47:03.034Z,55.81
2018-09-16T08:48:03.029Z,56.3
2018-09-16T08:49:03.156Z,55.83
2018-09-16T08:50:03.288Z,55.46
2018-09-16T08:51:03.240Z,55.34
2018-09-16T08:52:03.233Z,55.34
2018-09-16T08:53:02.980Z,54.05
2018-09-16T08:54:02.968Z,54.85
2018-09-16T08:55:03.134Z,54.72
2018-09-16T08:56:03.114Z,55.32
2018-09-16T08:57:03.146Z,54.65
2018-09-16T08:58:03.262Z,54.27
2018-09-16T09:00:33.180Z,54.29
2018-09-16T09:00:40.771Z,54.54
2018-09-16T09:01:40.824Z,54.58
2018-09-16T09:02:40.694Z,54.33
2018-09-16T09:03:40.653Z,54.82
2018-09-16T09:04:40.720Z,54.18
2018-09-16T09:05:41.180Z,54.33
2018-09-16T09:06:40.696Z,53.93
2018-09-16T09:07:40.658Z,53.3
2018-09-16T09:11:40.391Z,53.6
2018-09-16T09:12:40.823Z,52.92
2018-09-16T09:13:40.699Z,52.83
2018-09-16T09:14:41.492Z,53.78
2018-09-16T09:15:40.704Z,53.47
2018-09-16T09:16:40.687Z,53.38
2018-09-16T09:17:40.851Z,53.15
2018-09-16T09:18:40.680Z,52.88
2018-09-16T09:19:40.703Z,52.55
2018-09-16T09:20:40.773Z,53.37
2018-09-16T09:21:40.761Z,53.09
2018-09-16T09:22:41.345Z,52.76
2018-09-16T09:23:40.677Z,52.16
2018-09-16T09:24:40.675Z,52.34
2018-09-16T09:25:40.661Z,52.7
2018-09-16T09:26:40.923Z,52.57
2018-09-16T09:27:40.736Z,52.45
2018-09-16T09:28:40.798Z,51.51
2018-09-16T09:29:40.660Z,51.45
2018-09-16T09:30:40.751Z,51.3
2018-09-16T09:33:41.032Z,51.19
2018-09-16T09:34:40.699Z,51.87
2018-09-16T09:35:40.880Z,51.2
2018-09-16T09:39:40.708Z,50.16
2018-09-16T09:40:40.841Z,49.94
2018-09-16T09:41:40.708Z,49.27
2018-09-16T09:42:40.853Z,49.41
2018-09-16T09:43:40.670Z,49.94
2018-09-16T09:44:40.975Z,49.35
2018-09-16T09:45:40.739Z,49.69
2018-09-16T09:46:41.014Z,50.04
2018-09-16T09:47:40.734Z,50.1
2018-09-16T09:48:40.797Z,49.34
2018-09-16T09:49:40.699Z,49.16
2018-09-16T09:50:40.690Z,49.78
2018-09-16T09:51:40.772Z,49.04
2018-09-16T09:52:40.684Z,48.93
2018-09-16T09:53:40.806Z,48.23
2018-09-16T09:54:40.750Z,47.68
2018-09-16T09:55:40.717Z,47.85
2018-09-16T09:56:40.671Z,47.79
2018-09-16T09:57:41.169Z,47.98
2018-09-16T09:58:41.346Z,48.79
2018-09-16T09:59:40.662Z,48.05
2018-09-16T10:00:40.721Z,47.51
2018-09-16T10:01:40.722Z,47.41
2018-09-16T10:02:40.771Z,47.09
2018-09-16T10:03:41.113Z,46.39
2018-09-16T10:04:40.815Z,47.08
2018-09-16T10:05:41.126Z,46.64
2018-09-16T10:06:40.749Z,47.61
2018-09-16T10:07:40.866Z,47.44
2018-09-16T10:08:40.771Z,47.41
2018-09-16T10:09:40.867Z,46.64
2018-09-16T10:10:41.038Z,46.39
2018-09-16T10:11:40.752Z,46.33
2018-09-16T10:12:41.073Z,45.95
2018-09-16T10:13:40.800Z,45.36
2018-09-16T10:14:40.613Z,44.76
2018-09-16T10:15:41.643Z,45.25
2018-09-16T10:16:40.760Z,45.77
2018-09-16T10:17:40.656Z,45.76
2018-09-16T10:18:40.711Z,44.76
2018-09-16T10:19:40.672Z,45.03
2018-09-16T10:20:40.702Z,45.56
2018-09-16T10:21:40.674Z,45.42
2018-09-16T10:22:40.972Z,44.17
2018-09-16T10:23:40.706Z,45.06
2018-09-16T10:24:40.708Z,44.61
2018-09-16T10:25:40.653Z,44.58
2018-09-16T10:26:40.644Z,44.34
2018-09-16T10:27:40.650Z,45.24
2018-09-16T10:28:40.788Z,44.74
2018-09-16T10:29:41.186Z,44.52
2018-09-16T10:30:40.682Z,43.95
2018-09-16T10:31:41.103Z,44.39
2018-09-16T10:32:40.661Z,44.27
2018-09-16T10:33:41.084Z,44
2018-09-16T10:34:40.833Z,45.05
2018-09-16T10:35:40.895Z,45.2
2018-09-16T10:36:40.800Z,44.68
2018-09-16T10:37:40.731Z,44.74
2018-09-16T10:38:47.692Z,44.28
2018-09-16T10:39:41.327Z,43.79
2018-09-16T10:40:40.743Z,44.08
2018-09-16T10:41:40.632Z,43.94
2018-09-16T10:42:40.694Z,44.17
2018-09-16T10:43:41.054Z,44.28
2018-09-16T10:44:49.958Z,43.53
2018-09-16T10:45:40.773Z,43.94
2018-09-16T10:46:40.659Z,44.12
2018-09-16T10:47:40.669Z,43.46
2018-09-16T10:48:40.660Z,43.7
2018-09-16T10:49:40.644Z,44.17
2018-09-16T10:50:40.646Z,44.07
2018-09-16T10:51:45.892Z,43.56
2018-09-16T10:52:40.677Z,43.77
2018-09-16T10:53:40.654Z,43.23
2018-09-16T10:54:40.618Z,43.17
2018-09-16T10:55:43.049Z,43.02
2018-09-16T10:56:40.636Z,43.71
2018-09-16T10:57:40.677Z,42.64
2018-09-16T10:58:40.643Z,42.52
2018-09-16T10:59:40.677Z,43.26
2018-09-16T11:00:40.649Z,42.5
2018-09-16T11:01:40.633Z,43.08
2018-09-16T11:02:40.653Z,42.99
2018-09-16T11:03:40.672Z,43.14
2018-09-16T11:04:41.022Z,43.27
2018-09-16T11:05:41.138Z,43.39
2018-09-16T11:06:41.208Z,42.89
2018-09-16T11:07:40.908Z,42.65
2018-09-16T11:08:40.669Z,43.55
2018-09-16T11:09:41.300Z,42.24
2018-09-16T11:10:40.849Z,43.17
2018-09-16T11:11:40.659Z,42.69
2018-09-16T11:12:41.435Z,42.8
2018-09-16T11:13:40.677Z,42.31
2018-09-16T11:14:41.091Z,42.31
2018-09-16T11:15:41.120Z,42.47
2018-09-16T11:16:40.804Z,42.06
2018-09-16T11:17:40.746Z,42.88
2018-09-16T11:18:40.803Z,42.29
2018-09-16T11:19:46.569Z,42.78
2018-09-16T11:20:43.667Z,41.65
2018-09-16T11:21:41.558Z,42.5
2018-09-16T11:22:40.731Z,42.63
2018-09-16T11:23:40.641Z,41.94
2018-09-16T11:24:40.668Z,41.82
2018-09-16T11:25:40.649Z,42.19
2018-09-16T11:26:40.794Z,42.04
2018-09-16T11:27:40.715Z,43.15
2018-09-16T11:28:40.694Z,42.43
2018-09-16T11:29:40.964Z,42.5
2018-09-16T11:30:40.683Z,42.14
2018-09-16T11:31:40.672Z,42.17
2018-09-16T11:32:40.649Z,42.29
2018-09-16T11:33:40.769Z,42.15
2018-09-16T11:34:40.687Z,42.5
2018-09-16T11:35:41.138Z,41.67
2018-09-16T11:36:40.823Z,41.61
2018-09-16T11:37:40.761Z,41.37
2018-09-16T11:38:40.664Z,42.31
2018-09-16T11:39:40.676Z,42.41
2018-09-16T11:40:40.669Z,41.81
2018-09-16T11:41:40.636Z,42.28
2018-09-16T11:42:40.784Z,42.31
2018-09-16T11:43:40.645Z,41.97
2018-09-16T11:44:40.802Z,41.28
2018-09-16T11:45:40.680Z,41.25
2018-09-16T11:46:40.848Z,41.35
2018-09-16T11:47:40.614Z,41.93
2018-09-16T11:48:40.813Z,41.85
2018-09-16T11:49:40.672Z,41.87
2018-09-16T11:50:40.812Z,42.06
2018-09-16T11:51:41.588Z,42.35
2018-09-16T11:52:41.016Z,42.29
2018-09-16T11:53:40.848Z,40.87
2018-09-16T11:54:41.028Z,42.04
2018-09-16T11:55:40.738Z,41.84
2018-09-16T11:56:40.939Z,41.32
2018-09-16T11:57:40.955Z,41.44
2018-09-16T11:58:40.751Z,41.21
2018-09-16T11:59:40.775Z,41.87
2018-09-16T12:00:41.517Z,42.19
2018-09-16T12:01:40.742Z,42.21
2018-09-16T12:02:41.076Z,41.05
2018-09-16T12:03:41.905Z,40.88
2018-09-16T12:04:41.100Z,41
2018-09-16T12:05:40.825Z,42.29
2018-09-16T12:06:41.101Z,42.94
2018-09-16T12:07:40.808Z,41.28
2018-09-16T12:08:41.732Z,41.93
2018-09-16T12:09:40.674Z,41.26
2018-09-16T12:10:40.730Z,41.63
2018-09-16T12:11:40.867Z,41.06
2018-09-16T12:12:40.729Z,40.63
2018-09-16T12:13:41.772Z,40.96
2018-09-16T12:14:40.634Z,39.88
2018-09-16T12:15:40.763Z,39.8
2018-09-16T12:16:40.928Z,40.56
2018-09-16T12:17:40.815Z,41.33
2018-09-16T12:18:40.667Z,40.4
2018-09-16T12:19:40.856Z,41
2018-09-16T12:20:40.802Z,40.5
2018-09-16T12:21:40.627Z,39.93
2018-09-16T12:22:41.748Z,40.01
2018-09-16T12:23:40.691Z,40.99
2018-09-16T12:24:40.826Z,40.49
2018-09-16T12:25:40.682Z,41.01
2018-09-16T12:26:40.740Z,40.66
2018-09-16T12:27:40.845Z,40.81
2018-09-16T12:28:40.762Z,40.73
2018-09-16T12:29:40.868Z,41.25
2018-09-16T12:30:40.744Z,40.87
2018-09-16T12:31:40.766Z,39.88
2018-09-16T12:32:40.771Z,40.02
2018-09-16T12:33:40.850Z,41.04
2018-09-16T12:34:40.651Z,40.89
2018-09-16T12:35:40.690Z,40.68
2018-09-16T12:36:40.808Z,39.43
2018-09-16T12:37:40.702Z,39.86
2018-09-16T12:38:40.916Z,40.12
2018-09-16T12:39:40.651Z,39.58
2018-09-16T12:40:40.621Z,39.64
2018-09-16T12:41:40.858Z,39.87
2018-09-16T12:42:40.667Z,39.69
2018-09-16T12:43:40.751Z,40.32
2018-09-16T12:44:40.768Z,39.46
2018-09-16T12:45:40.693Z,39.99
2018-09-16T12:46:40.655Z,39.16
2018-09-16T12:47:40.770Z,38.67
2018-09-16T12:48:40.797Z,39.42
2018-09-16T12:49:40.653Z,39.24
2018-09-16T12:50:40.799Z,38.5
2018-09-16T12:51:41.012Z,38.86
2018-09-16T12:52:40.636Z,39.04
2018-09-16T12:53:41.361Z,38.86
2018-09-16T12:54:41.029Z,39.03
2018-09-16T12:55:40.731Z,39.62
2018-09-16T12:56:40.737Z,39.32
2018-09-16T12:57:40.651Z,39.69
2018-09-16T12:58:40.673Z,39.6
2018-09-16T12:59:41.058Z,39.94
2018-09-16T13:00:40.627Z,39.2
2018-09-16T13:01:40.838Z,39.03
2018-09-16T13:02:41.898Z,39.41
2018-09-16T13:03:40.773Z,38.7
2018-09-16T13:04:40.668Z,38.56
2018-09-16T13:05:41.714Z,37.99
2018-09-16T13:06:41.124Z,38.57
2018-09-16T13:07:40.718Z,38.51